sensor_id;sensor_type;location;lat;lon;timestamp;pressure;altitude;pressure_sealevel;temperature
65290;BMP180;51893;59.754;10.110;2022-10-04T00:07:06;101684.60;;;7.30
65290;BMP180;51893;59.754;10.110;2022-10-04T00:10:12;101685.00;;;7.30
65290;BMP180;51893;59.754;10.110;2022-10-04T00:13:05;101687.60;;;7.40
65290;BMP180;51893;59.754;10.110;2022-10-04T00:15:40;101684.80;;;7.40
65290;BMP180;51893;59.754;10.110;2022-10-04T00:23:28;101693.20;;;7.34
65290;BMP180;51893;59.754;10.110;2022-10-04T00:28:49;101683.40;;;7.30
65290;BMP180;51893;59.754;10.110;2022-10-04T00:42:03;101662.20;;;7.20
65290;BMP180;51893;59.754;10.110;2022-10-04T00:44:59;101660.00;;;7.10
65290;BMP180;51893;59.754;10.110;2022-10-04T00:50:37;101656.40;;;7.10
65290;BMP180;51893;59.754;10.110;2022-10-04T00:56:10;101652.80;;;7.10
65290;BMP180;51893;59.754;10.110;2022-10-04T00:59:08;101648.20;;;7.10
65290;BMP180;51893;59.754;10.110;2022-10-04T01:01:35;101643.60;;;7.00
65290;BMP180;51893;59.754;10.110;2022-10-04T01:04:22;101650.20;;;7.00
65290;BMP180;51893;59.754;10.110;2022-10-04T01:06:52;101643.80;;;6.90
65290;BMP180;51893;59.754;10.110;2022-10-04T01:09:20;101646.00;;;6.90
65290;BMP180;51893;59.754;10.110;2022-10-04T01:12:01;101645.00;;;6.90
65290;BMP180;51893;59.754;10.110;2022-10-04T01:17:37;101640.80;;;6.80
65290;BMP180;51893;59.754;10.110;2022-10-04T01:20:34;101635.40;;;6.70
65290;BMP180;51893;59.754;10.110;2022-10-04T01:23:03;101633.20;;;6.60
65290;BMP180;51893;59.754;10.110;2022-10-04T01:25:50;101633.40;;;6.60
65290;BMP180;51893;59.754;10.110;2022-10-04T01:28:18;101625.20;;;6.60
65290;BMP180;51893;59.754;10.110;2022-10-04T01:30:44;101620.20;;;6.60
65290;BMP180;51893;59.754;10.110;2022-10-04T01:33:14;101614.20;;;6.60
65290;BMP180;51893;59.754;10.110;2022-10-04T01:35:41;101610.60;;;6.60
65290;BMP180;51893;59.754;10.110;2022-10-04T01:38:08;101604.00;;;6.50
65290;BMP180;51893;59.754;10.110;2022-10-04T01:40:40;101600.60;;;6.46
65290;BMP180;51893;59.754;10.110;2022-10-04T01:43:14;101605.00;;;6.40
65290;BMP180;51893;59.754;10.110;2022-10-04T01:45:54;101603.60;;;6.48
65290;BMP180;51893;59.754;10.110;2022-10-04T01:48:29;101601.20;;;6.40
65290;BMP180;51893;59.754;10.110;2022-10-04T01:51:18;101596.20;;;6.40
65290;BMP180;51893;59.754;10.110;2022-10-04T01:53:53;101591.00;;;6.40
65290;BMP180;51893;59.754;10.110;2022-10-04T01:56:37;101592.80;;;6.40
65290;BMP180;51893;59.754;10.110;2022-10-04T01:59:18;101588.00;;;6.40
65290;BMP180;51893;59.754;10.110;2022-10-04T02:02:03;101594.20;;;6.30
65290;BMP180;51893;59.754;10.110;2022-10-04T02:04:37;101598.00;;;6.20
65290;BMP180;51893;59.754;10.110;2022-10-04T02:07:12;101587.80;;;6.20
65290;BMP180;51893;59.754;10.110;2022-10-04T02:09:44;101582.20;;;6.10
65290;BMP180;51893;59.754;10.110;2022-10-04T02:12:16;101581.60;;;6.10
65290;BMP180;51893;59.754;10.110;2022-10-04T02:14:51;101578.60;;;6.10
65290;BMP180;51893;59.754;10.110;2022-10-04T02:17:24;101575.40;;;6.08
65290;BMP180;51893;59.754;10.110;2022-10-04T02:19:56;101579.60;;;6.10
65290;BMP180;51893;59.754;10.110;2022-10-04T02:22:24;101574.40;;;6.10
65290;BMP180;51893;59.754;10.110;2022-10-04T02:24:55;101586.60;;;6.10
65290;BMP180;51893;59.754;10.110;2022-10-04T02:27:28;101579.00;;;6.18
65290;BMP180;51893;59.754;10.110;2022-10-04T02:30:10;101573.80;;;6.10
65290;BMP180;51893;59.754;10.110;2022-10-04T02:32:42;101566.80;;;6.00
65290;BMP180;51893;59.754;10.110;2022-10-04T02:35:34;101568.80;;;6.06
65290;BMP180;51893;59.754;10.110;2022-10-04T02:38:24;101566.60;;;6.10
65290;BMP180;51893;59.754;10.110;2022-10-04T02:40:58;101569.40;;;6.10
65290;BMP180;51893;59.754;10.110;2022-10-04T02:43:55;101570.00;;;6.00
65290;BMP180;51893;59.754;10.110;2022-10-04T02:49:37;101562.80;;;5.90
65290;BMP180;51893;59.754;10.110;2022-10-04T02:52:52;101561.00;;;5.90
65290;BMP180;51893;59.754;10.110;2022-10-04T02:55:28;101556.40;;;5.90
65290;BMP180;51893;59.754;10.110;2022-10-04T02:57:58;101550.60;;;5.96
65290;BMP180;51893;59.754;10.110;2022-10-04T03:00:29;101547.20;;;5.96
65290;BMP180;51893;59.754;10.110;2022-10-04T03:06:29;101531.60;;;5.90
65290;BMP180;51893;59.754;10.110;2022-10-04T03:09:03;101527.80;;;5.80
65290;BMP180;51893;59.754;10.110;2022-10-04T03:11:38;101519.60;;;5.80
65290;BMP180;51893;59.754;10.110;2022-10-04T03:14:23;101510.60;;;5.80
65290;BMP180;51893;59.754;10.110;2022-10-04T03:16:56;101511.60;;;5.90
65290;BMP180;51893;59.754;10.110;2022-10-04T03:19:29;101506.60;;;6.00
65290;BMP180;51893;59.754;10.110;2022-10-04T03:22:06;101502.80;;;5.94
65290;BMP180;51893;59.754;10.110;2022-10-04T03:24:47;101498.60;;;5.90
65290;BMP180;51893;59.754;10.110;2022-10-04T03:27:21;101500.80;;;5.90
65290;BMP180;51893;59.754;10.110;2022-10-04T03:29:48;101500.40;;;5.80
65290;BMP180;51893;59.754;10.110;2022-10-04T03:32:17;101497.00;;;5.78
65290;BMP180;51893;59.754;10.110;2022-10-04T03:34:59;101498.00;;;5.70
65290;BMP180;51893;59.754;10.110;2022-10-04T03:37:32;101499.40;;;5.70
65290;BMP180;51893;59.754;10.110;2022-10-04T03:40:01;101497.20;;;5.70
65290;BMP180;51893;59.754;10.110;2022-10-04T03:42:33;101493.20;;;5.80
65290;BMP180;51893;59.754;10.110;2022-10-04T03:45:07;101494.80;;;5.80
65290;BMP180;51893;59.754;10.110;2022-10-04T03:47:40;101494.00;;;5.80
65290;BMP180;51893;59.754;10.110;2022-10-04T03:50:18;101493.60;;;5.80
65290;BMP180;51893;59.754;10.110;2022-10-04T03:55:54;101494.80;;;5.80
65290;BMP180;51893;59.754;10.110;2022-10-04T03:58:23;101474.60;;;5.76
65290;BMP180;51893;59.754;10.110;2022-10-04T04:01:02;101477.20;;;5.70
65290;BMP180;51893;59.754;10.110;2022-10-04T04:12:24;101462.60;;;5.80
65290;BMP180;51893;59.754;10.110;2022-10-04T04:14:55;101458.40;;;5.84
65290;BMP180;51893;59.754;10.110;2022-10-04T04:17:35;101453.00;;;5.80
65290;BMP180;51893;59.754;10.110;2022-10-04T04:20:12;101444.00;;;5.80
65290;BMP180;51893;59.754;10.110;2022-10-04T04:22:44;101441.60;;;5.80
65290;BMP180;51893;59.754;10.110;2022-10-04T04:25:15;101439.80;;;5.80
65290;BMP180;51893;59.754;10.110;2022-10-04T04:27:45;101442.60;;;5.80
65290;BMP180;51893;59.754;10.110;2022-10-04T04:30:16;101442.00;;;5.80
65290;BMP180;51893;59.754;10.110;2022-10-04T04:33:06;101438.40;;;5.80
65290;BMP180;51893;59.754;10.110;2022-10-04T04:35:33;101434.80;;;5.80
65290;BMP180;51893;59.754;10.110;2022-10-04T04:38:19;101427.40;;;5.80
65290;BMP180;51893;59.754;10.110;2022-10-04T04:40:46;101427.40;;;5.70
65290;BMP180;51893;59.754;10.110;2022-10-04T04:43:18;101427.20;;;5.76
65290;BMP180;51893;59.754;10.110;2022-10-04T04:45:49;101430.20;;;5.80
65290;BMP180;51893;59.754;10.110;2022-10-04T04:48:38;101432.60;;;5.80
65290;BMP180;51893;59.754;10.110;2022-10-04T04:51:04;101428.60;;;5.80
65290;BMP180;51893;59.754;10.110;2022-10-04T04:53:35;101428.40;;;5.80
65290;BMP180;51893;59.754;10.110;2022-10-04T04:56:04;101423.60;;;5.80
65290;BMP180;51893;59.754;10.110;2022-10-04T04:58:43;101419.40;;;5.80
65290;BMP180;51893;59.754;10.110;2022-10-04T05:01:45;101419.80;;;5.72
65290;BMP180;51893;59.754;10.110;2022-10-04T05:06:43;101418.80;;;5.80
65290;BMP180;51893;59.754;10.110;2022-10-04T05:09:29;101421.80;;;5.80
65290;BMP180;51893;59.754;10.110;2022-10-04T05:12:16;101415.00;;;5.88
65290;BMP180;51893;59.754;10.110;2022-10-04T05:14:51;101410.20;;;5.90
65290;BMP180;51893;59.754;10.110;2022-10-04T05:17:29;101403.40;;;5.82
65290;BMP180;51893;59.754;10.110;2022-10-04T05:20:00;101400.80;;;5.80
65290;BMP180;51893;59.754;10.110;2022-10-04T05:22:30;101398.20;;;5.80
65290;BMP180;51893;59.754;10.110;2022-10-04T05:25:04;101397.40;;;5.80
65290;BMP180;51893;59.754;10.110;2022-10-04T05:27:42;101395.20;;;5.72
65290;BMP180;51893;59.754;10.110;2022-10-04T05:33:24;101389.20;;;5.60
65290;BMP180;51893;59.754;10.110;2022-10-04T05:36:29;101389.80;;;5.50
65290;BMP180;51893;59.754;10.110;2022-10-04T05:39:35;101392.40;;;5.50
65290;BMP180;51893;59.754;10.110;2022-10-04T05:47:22;101394.40;;;5.48
65290;BMP180;51893;59.754;10.110;2022-10-04T05:49:55;101392.60;;;5.50
65290;BMP180;51893;59.754;10.110;2022-10-04T05:52:37;101389.60;;;5.50
65290;BMP180;51893;59.754;10.110;2022-10-04T06:05:22;101370.80;;;5.40
65290;BMP180;51893;59.754;10.110;2022-10-04T06:08:08;101384.80;;;5.40
65290;BMP180;51893;59.754;10.110;2022-10-04T06:13:42;101377.80;;;5.40
65290;BMP180;51893;59.754;10.110;2022-10-04T06:20:07;101363.20;;;5.30
65290;BMP180;51893;59.754;10.110;2022-10-04T06:22:46;101360.00;;;5.38
65290;BMP180;51893;59.754;10.110;2022-10-04T06:25:33;101348.80;;;5.30
65290;BMP180;51893;59.754;10.110;2022-10-04T06:40:06;101344.20;;;5.50
65290;BMP180;51893;59.754;10.110;2022-10-04T06:52:27;101328.60;;;5.50
65290;BMP180;51893;59.754;10.110;2022-10-04T06:55:42;101331.20;;;5.50
65290;BMP180;51893;59.754;10.110;2022-10-04T07:01:32;101332.40;;;5.40
65290;BMP180;51893;59.754;10.110;2022-10-04T07:13:12;101316.80;;;5.60
65290;BMP180;51893;59.754;10.110;2022-10-04T07:18:35;101312.40;;;5.70
65290;BMP180;51893;59.754;10.110;2022-10-04T07:21:11;101305.60;;;5.80
65290;BMP180;51893;59.754;10.110;2022-10-04T07:23:49;101304.00;;;5.90
65290;BMP180;51893;59.754;10.110;2022-10-04T07:26:32;101296.60;;;5.98
65290;BMP180;51893;59.754;10.110;2022-10-04T07:29:15;101295.00;;;6.00
65290;BMP180;51893;59.754;10.110;2022-10-04T07:34:47;101294.40;;;6.10
65290;BMP180;51893;59.754;10.110;2022-10-04T07:37:16;101302.40;;;6.18
65290;BMP180;51893;59.754;10.110;2022-10-04T07:40:26;101307.20;;;6.20
65290;BMP180;51893;59.754;10.110;2022-10-04T07:43:11;101343.60;;;6.20
65290;BMP180;51893;59.754;10.110;2022-10-04T07:45:40;101362.80;;;6.20
65290;BMP180;51893;59.754;10.110;2022-10-04T07:48:20;101346.20;;;6.20
65290;BMP180;51893;59.754;10.110;2022-10-04T07:51:13;101366.40;;;6.20
65290;BMP180;51893;59.754;10.110;2022-10-04T07:56:46;101347.00;;;6.20
65290;BMP180;51893;59.754;10.110;2022-10-04T08:00:00;101335.20;;;6.20
65290;BMP180;51893;59.754;10.110;2022-10-04T08:11:50;101314.00;;;6.60
65290;BMP180;51893;59.754;10.110;2022-10-04T08:14:38;101308.00;;;6.60
65290;BMP180;51893;59.754;10.110;2022-10-04T08:17:20;101302.20;;;6.60
65290;BMP180;51893;59.754;10.110;2022-10-04T08:35:05;101310.40;;;6.90
65290;BMP180;51893;59.754;10.110;2022-10-04T08:50:28;101267.60;;;7.30
65290;BMP180;51893;59.754;10.110;2022-10-04T08:56:17;101270.20;;;7.40
65290;BMP180;51893;59.754;10.110;2022-10-04T09:05:18;101256.40;;;7.50
65290;BMP180;51893;59.754;10.110;2022-10-04T09:07:59;101252.20;;;7.50
65290;BMP180;51893;59.754;10.110;2022-10-04T09:11:05;101255.60;;;7.60
65290;BMP180;51893;59.754;10.110;2022-10-04T09:16:54;101240.60;;;7.80
65290;BMP180;51893;59.754;10.110;2022-10-04T09:23:53;101230.00;;;7.90
65290;BMP180;51893;59.754;10.110;2022-10-04T09:29:33;101221.60;;;8.00
65290;BMP180;51893;59.754;10.110;2022-10-04T09:32:49;101217.00;;;8.10
65290;BMP180;51893;59.754;10.110;2022-10-04T09:39:26;101219.00;;;8.30
65290;BMP180;51893;59.754;10.110;2022-10-04T09:42:26;101225.40;;;8.40
65290;BMP180;51893;59.754;10.110;2022-10-04T09:51:07;101227.40;;;8.60
65290;BMP180;51893;59.754;10.110;2022-10-04T09:57:14;101241.80;;;8.70
65290;BMP180;51893;59.754;10.110;2022-10-04T10:40:38;101186.80;;;9.70
65290;BMP180;51893;59.754;10.110;2022-10-04T11:20:23;101133.00;;;10.20
65290;BMP180;51893;59.754;10.110;2022-10-04T11:32:30;101106.20;;;10.40
65290;BMP180;51893;59.754;10.110;2022-10-04T11:38:44;101094.60;;;10.50
65290;BMP180;51893;59.754;10.110;2022-10-04T11:41:40;101095.40;;;10.60
65290;BMP180;51893;59.754;10.110;2022-10-04T11:50:55;101085.20;;;10.70
65290;BMP180;51893;59.754;10.110;2022-10-04T12:00:40;101078.40;;;10.94
65290;BMP180;51893;59.754;10.110;2022-10-04T12:06:36;101059.60;;;11.10
65290;BMP180;51893;59.754;10.110;2022-10-04T12:09:25;101045.20;;;11.10
65290;BMP180;51893;59.754;10.110;2022-10-04T12:26:01;101024.80;;;11.40
65290;BMP180;51893;59.754;10.110;2022-10-04T12:31:56;101011.40;;;11.50
65290;BMP180;51893;59.754;10.110;2022-10-04T12:34:35;101018.00;;;11.60
65290;BMP180;51893;59.754;10.110;2022-10-04T12:37:15;101014.40;;;11.68
65290;BMP180;51893;59.754;10.110;2022-10-04T12:43:01;101021.60;;;11.70
65290;BMP180;51893;59.754;10.110;2022-10-04T12:45:54;101024.40;;;11.80
65290;BMP180;51893;59.754;10.110;2022-10-04T12:51:44;101018.40;;;11.90
65290;BMP180;51893;59.754;10.110;2022-10-04T12:54:42;101010.00;;;11.90
65290;BMP180;51893;59.754;10.110;2022-10-04T12:57:34;101003.60;;;11.90
65290;BMP180;51893;59.754;10.110;2022-10-04T13:00:25;101006.40;;;11.90
65290;BMP180;51893;59.754;10.110;2022-10-04T13:03:30;100998.20;;;11.92
65290;BMP180;51893;59.754;10.110;2022-10-04T13:12:05;100980.00;;;12.10
65290;BMP180;51893;59.754;10.110;2022-10-04T13:14:46;100978.60;;;12.10
65290;BMP180;51893;59.754;10.110;2022-10-04T13:17:31;100975.40;;;12.10
65290;BMP180;51893;59.754;10.110;2022-10-04T13:24:06;100959.80;;;12.20
65290;BMP180;51893;59.754;10.110;2022-10-04T13:26:50;100944.60;;;12.20
65290;BMP180;51893;59.754;10.110;2022-10-04T13:29:47;100947.40;;;12.20
65290;BMP180;51893;59.754;10.110;2022-10-04T13:32:28;100953.60;;;12.20
65290;BMP180;51893;59.754;10.110;2022-10-04T13:35:35;100958.20;;;12.30
65290;BMP180;51893;59.754;10.110;2022-10-04T14:05:31;100908.00;;;12.60
65290;BMP180;51893;59.754;10.110;2022-10-04T14:30:12;100859.20;;;12.50
65290;BMP180;51893;59.754;10.110;2022-10-04T14:39:05;100848.60;;;12.40
65290;BMP180;51893;59.754;10.110;2022-10-04T14:48:27;100848.00;;;12.50
65290;BMP180;51893;59.754;10.110;2022-10-04T15:00:20;100821.60;;;12.50
65290;BMP180;51893;59.754;10.110;2022-10-04T15:03:30;100821.60;;;12.60
65290;BMP180;51893;59.754;10.110;2022-10-04T15:06:14;100830.80;;;12.72
65290;BMP180;51893;59.754;10.110;2022-10-04T15:20:53;100809.60;;;13.10
65290;BMP180;51893;59.754;10.110;2022-10-04T15:23:45;100800.00;;;13.10
65290;BMP180;51893;59.754;10.110;2022-10-04T15:42:24;100737.60;;;13.20
65290;BMP180;51893;59.754;10.110;2022-10-04T15:51:17;100724.00;;;13.14
65290;BMP180;51893;59.754;10.110;2022-10-04T15:56:59;100720.60;;;13.14
65290;BMP180;51893;59.754;10.110;2022-10-04T16:05:29;100740.60;;;13.10
65290;BMP180;51893;59.754;10.110;2022-10-04T16:08:14;100733.80;;;13.10
65290;BMP180;51893;59.754;10.110;2022-10-04T16:11:29;100722.40;;;13.10
65290;BMP180;51893;59.754;10.110;2022-10-04T16:16:49;100715.40;;;13.10
65290;BMP180;51893;59.754;10.110;2022-10-04T16:20:01;100728.60;;;13.10
65290;BMP180;51893;59.754;10.110;2022-10-04T16:22:33;100736.40;;;13.10
65290;BMP180;51893;59.754;10.110;2022-10-04T16:33:52;100684.20;;;13.10
65290;BMP180;51893;59.754;10.110;2022-10-04T16:36:43;100689.20;;;13.10
65290;BMP180;51893;59.754;10.110;2022-10-04T16:39:46;100685.80;;;13.12
65290;BMP180;51893;59.754;10.110;2022-10-04T16:48:54;100665.00;;;13.12
65290;BMP180;51893;59.754;10.110;2022-10-04T16:51:46;100668.40;;;13.18
65290;BMP180;51893;59.754;10.110;2022-10-04T16:54:55;100654.00;;;13.20
65290;BMP180;51893;59.754;10.110;2022-10-04T16:57:25;100636.40;;;13.20
65290;BMP180;51893;59.754;10.110;2022-10-04T16:59:57;100626.20;;;13.20
65290;BMP180;51893;59.754;10.110;2022-10-04T17:08:23;100612.20;;;13.20
65290;BMP180;51893;59.754;10.110;2022-10-04T17:11:30;100600.80;;;13.20
65290;BMP180;51893;59.754;10.110;2022-10-04T17:17:13;100593.40;;;13.20
65290;BMP180;51893;59.754;10.110;2022-10-04T17:19:55;100595.80;;;13.20
65290;BMP180;51893;59.754;10.110;2022-10-04T17:25:58;100599.40;;;13.30
65290;BMP180;51893;59.754;10.110;2022-10-04T17:31:25;100596.80;;;13.30
65290;BMP180;51893;59.754;10.110;2022-10-04T17:43:39;100582.60;;;13.30
65290;BMP180;51893;59.754;10.110;2022-10-04T17:49:02;100551.60;;;13.50
65290;BMP180;51893;59.754;10.110;2022-10-04T17:51:53;100544.60;;;13.60
65290;BMP180;51893;59.754;10.110;2022-10-04T17:54:51;100512.20;;;13.68
65290;BMP180;51893;59.754;10.110;2022-10-04T17:58:03;100518.80;;;13.70
65290;BMP180;51893;59.754;10.110;2022-10-04T18:01:02;100511.20;;;13.76
65290;BMP180;51893;59.754;10.110;2022-10-04T18:04:15;100519.20;;;13.80
65290;BMP180;51893;59.754;10.110;2022-10-04T18:09:47;100508.80;;;13.86
65290;BMP180;51893;59.754;10.110;2022-10-04T18:12:42;100520.00;;;13.90
65290;BMP180;51893;59.754;10.110;2022-10-04T18:15:37;100521.00;;;13.90
65290;BMP180;51893;59.754;10.110;2022-10-04T18:21:00;100545.00;;;13.90
65290;BMP180;51893;59.754;10.110;2022-10-04T18:23:37;100543.40;;;13.90
65290;BMP180;51893;59.754;10.110;2022-10-04T18:26:15;100523.60;;;13.80
65290;BMP180;51893;59.754;10.110;2022-10-04T18:28:48;100527.60;;;13.80
65290;BMP180;51893;59.754;10.110;2022-10-04T18:31:35;100530.80;;;13.90
65290;BMP180;51893;59.754;10.110;2022-10-04T18:34:28;100521.40;;;13.90
65290;BMP180;51893;59.754;10.110;2022-10-04T18:37:32;100514.00;;;13.90
65290;BMP180;51893;59.754;10.110;2022-10-04T18:40:34;100501.00;;;13.90
65290;BMP180;51893;59.754;10.110;2022-10-04T18:43:39;100504.20;;;13.90
65290;BMP180;51893;59.754;10.110;2022-10-04T18:46:16;100494.60;;;13.90
65290;BMP180;51893;59.754;10.110;2022-10-04T18:49:48;100498.20;;;13.80
65290;BMP180;51893;59.754;10.110;2022-10-04T18:52:39;100485.60;;;13.84
65290;BMP180;51893;59.754;10.110;2022-10-04T18:55:31;100488.60;;;13.84
65290;BMP180;51893;59.754;10.110;2022-10-04T18:58:35;100468.20;;;13.80
65290;BMP180;51893;59.754;10.110;2022-10-04T19:01:33;100452.80;;;13.80
65290;BMP180;51893;59.754;10.110;2022-10-04T19:05:14;100440.00;;;13.88
65290;BMP180;51893;59.754;10.110;2022-10-04T19:07:53;100424.40;;;13.90
65290;BMP180;51893;59.754;10.110;2022-10-04T19:10:40;100424.60;;;14.00
65290;BMP180;51893;59.754;10.110;2022-10-04T19:16:34;100432.80;;;14.00
65290;BMP180;51893;59.754;10.110;2022-10-04T19:19:30;100427.60;;;14.02
65290;BMP180;51893;59.754;10.110;2022-10-04T19:27:26;100407.80;;;14.10
65290;BMP180;51893;59.754;10.110;2022-10-04T19:53:00;100347.40;;;14.40
65290;BMP180;51893;59.754;10.110;2022-10-04T19:55:57;100351.00;;;14.40
65290;BMP180;51893;59.754;10.110;2022-10-04T19:59:00;100352.00;;;14.48
65290;BMP180;51893;59.754;10.110;2022-10-04T20:01:31;100367.80;;;14.46
65290;BMP180;51893;59.754;10.110;2022-10-04T20:03:58;100381.20;;;14.50
65290;BMP180;51893;59.754;10.110;2022-10-04T20:06:55;100362.80;;;14.50
65290;BMP180;51893;59.754;10.110;2022-10-04T20:09:30;100357.20;;;14.50
65290;BMP180;51893;59.754;10.110;2022-10-04T20:12:00;100351.40;;;14.50
65290;BMP180;51893;59.754;10.110;2022-10-04T20:22:26;100340.80;;;14.60
65290;BMP180;51893;59.754;10.110;2022-10-04T20:24:53;100343.60;;;14.60
65290;BMP180;51893;59.754;10.110;2022-10-04T20:30:12;100309.60;;;14.60
65290;BMP180;51893;59.754;10.110;2022-10-04T20:35:12;100313.00;;;14.60
65290;BMP180;51893;59.754;10.110;2022-10-04T20:40:44;100307.20;;;14.60
65290;BMP180;51893;59.754;10.110;2022-10-04T20:48:26;100289.80;;;14.60
65290;BMP180;51893;59.754;10.110;2022-10-04T20:50:54;100290.20;;;14.60
65290;BMP180;51893;59.754;10.110;2022-10-04T20:53:27;100286.60;;;14.60
65290;BMP180;51893;59.754;10.110;2022-10-04T20:56:10;100288.40;;;14.60
65290;BMP180;51893;59.754;10.110;2022-10-04T20:58:38;100280.40;;;14.60
65290;BMP180;51893;59.754;10.110;2022-10-04T21:01:22;100293.80;;;14.62
65290;BMP180;51893;59.754;10.110;2022-10-04T21:04:25;100298.60;;;14.70
65290;BMP180;51893;59.754;10.110;2022-10-04T21:07:02;100283.20;;;14.70
65290;BMP180;51893;59.754;10.110;2022-10-04T21:09:34;100282.80;;;14.70
65290;BMP180;51893;59.754;10.110;2022-10-04T21:12:03;100277.00;;;14.74
65290;BMP180;51893;59.754;10.110;2022-10-04T21:14:36;100267.00;;;14.80
65290;BMP180;51893;59.754;10.110;2022-10-04T21:19:53;100256.00;;;14.80
65290;BMP180;51893;59.754;10.110;2022-10-04T21:24:57;100257.20;;;14.80
65290;BMP180;51893;59.754;10.110;2022-10-04T21:27:36;100269.00;;;14.80
65290;BMP180;51893;59.754;10.110;2022-10-04T21:30:12;100242.40;;;14.80
65290;BMP180;51893;59.754;10.110;2022-10-04T21:32:39;100235.80;;;14.80
65290;BMP180;51893;59.754;10.110;2022-10-04T21:35:08;100229.20;;;14.80
65290;BMP180;51893;59.754;10.110;2022-10-04T21:37:35;100222.20;;;14.80
65290;BMP180;51893;59.754;10.110;2022-10-04T21:40:06;100230.20;;;14.80
65290;BMP180;51893;59.754;10.110;2022-10-04T21:42:33;100232.60;;;14.80
65290;BMP180;51893;59.754;10.110;2022-10-04T21:45:00;100232.20;;;14.88
65290;BMP180;51893;59.754;10.110;2022-10-04T21:47:26;100227.80;;;14.88
65290;BMP180;51893;59.754;10.110;2022-10-04T21:49:58;100220.20;;;14.90
65290;BMP180;51893;59.754;10.110;2022-10-04T21:52:25;100212.40;;;14.90
65290;BMP180;51893;59.754;10.110;2022-10-04T21:54:54;100216.80;;;14.90
65290;BMP180;51893;59.754;10.110;2022-10-04T21:57:20;100209.40;;;14.90
65290;BMP180;51893;59.754;10.110;2022-10-04T21:59:49;100203.40;;;14.90
65290;BMP180;51893;59.754;10.110;2022-10-04T22:02:19;100206.00;;;14.92
65290;BMP180;51893;59.754;10.110;2022-10-04T22:04:46;100217.20;;;14.90
65290;BMP180;51893;59.754;10.110;2022-10-04T22:07:13;100212.80;;;14.90
65290;BMP180;51893;59.754;10.110;2022-10-04T22:09:39;100207.00;;;14.88
65290;BMP180;51893;59.754;10.110;2022-10-04T22:12:06;100203.00;;;14.80
65290;BMP180;51893;59.754;10.110;2022-10-04T22:14:33;100209.40;;;14.80
65290;BMP180;51893;59.754;10.110;2022-10-04T22:17:00;100210.00;;;14.80
65290;BMP180;51893;59.754;10.110;2022-10-04T22:19:27;100199.00;;;14.80
65290;BMP180;51893;59.754;10.110;2022-10-04T22:21:54;100182.40;;;14.84
65290;BMP180;51893;59.754;10.110;2022-10-04T22:24:21;100193.40;;;14.90
65290;BMP180;51893;59.754;10.110;2022-10-04T22:26:47;100197.80;;;14.90
65290;BMP180;51893;59.754;10.110;2022-10-04T22:29:16;100195.60;;;14.90
65290;BMP180;51893;59.754;10.110;2022-10-04T22:31:51;100193.40;;;14.90
65290;BMP180;51893;59.754;10.110;2022-10-04T22:34:20;100180.20;;;14.90
65290;BMP180;51893;59.754;10.110;2022-10-04T22:36:49;100176.00;;;15.00
65290;BMP180;51893;59.754;10.110;2022-10-04T22:39:19;100166.80;;;15.00
65290;BMP180;51893;59.754;10.110;2022-10-04T22:41:53;100166.80;;;15.00
65290;BMP180;51893;59.754;10.110;2022-10-04T22:44:37;100161.80;;;15.00
65290;BMP180;51893;59.754;10.110;2022-10-04T22:47:13;100161.00;;;14.90
65290;BMP180;51893;59.754;10.110;2022-10-04T22:49:45;100174.20;;;14.90
65290;BMP180;51893;59.754;10.110;2022-10-04T22:52:18;100159.80;;;14.90
65290;BMP180;51893;59.754;10.110;2022-10-04T22:54:49;100151.80;;;14.90
65290;BMP180;51893;59.754;10.110;2022-10-04T22:57:18;100149.60;;;14.90
65290;BMP180;51893;59.754;10.110;2022-10-04T22:59:50;100162.00;;;14.84
65290;BMP180;51893;59.754;10.110;2022-10-04T23:02:21;100158.00;;;14.80
65290;BMP180;51893;59.754;10.110;2022-10-04T23:05:00;100158.00;;;14.80
65290;BMP180;51893;59.754;10.110;2022-10-04T23:07:35;100155.20;;;14.80
65290;BMP180;51893;59.754;10.110;2022-10-04T23:10:05;100171.80;;;14.82
65290;BMP180;51893;59.754;10.110;2022-10-04T23:12:32;100170.80;;;14.82
65290;BMP180;51893;59.754;10.110;2022-10-04T23:15:00;100166.80;;;14.80
65290;BMP180;51893;59.754;10.110;2022-10-04T23:17:38;100167.80;;;14.80
65290;BMP180;51893;59.754;10.110;2022-10-04T23:22:34;100165.00;;;14.90
65290;BMP180;51893;59.754;10.110;2022-10-04T23:27:39;100169.20;;;14.90
65290;BMP180;51893;59.754;10.110;2022-10-04T23:30:16;100164.80;;;14.94
65290;BMP180;51893;59.754;10.110;2022-10-04T23:32:50;100159.80;;;14.90
65290;BMP180;51893;59.754;10.110;2022-10-04T23:35:28;100164.20;;;14.90
65290;BMP180;51893;59.754;10.110;2022-10-04T23:37:55;100154.40;;;15.00
65290;BMP180;51893;59.754;10.110;2022-10-04T23:40:24;100150.60;;;15.00
65290;BMP180;51893;59.754;10.110;2022-10-04T23:42:55;100155.00;;;14.94
65290;BMP180;51893;59.754;10.110;2022-10-04T23:45:24;100162.20;;;14.90
65290;BMP180;51893;59.754;10.110;2022-10-04T23:47:54;100156.40;;;14.90
65290;BMP180;51893;59.754;10.110;2022-10-04T23:50:29;100155.40;;;14.90
65290;BMP180;51893;59.754;10.110;2022-10-04T23:53:01;100151.00;;;14.88
65290;BMP180;51893;59.754;10.110;2022-10-04T23:55:36;100149.40;;;14.90
65290;BMP180;51893;59.754;10.110;2022-10-04T23:58:15;100141.20;;;14.90
